TKJ1ME LTFJ-LTAN
Flight info
| Callsign | TKJ1ME |
|---|---|
| Flight time | N/A |
| Altitude | 37000 |
| Route | ROXUK1J/06L ROXUK UN617 ERVAG UT179 KFK UL620 OKLAM UB545 SEHIR |
| Aircraft | A20N/M-SDE2E3FGHIRWXY/LB1 |
Departure
| Time | 2026-05-05 18:43 |
|---|---|
| Airport | Istanbul Sabiha Gökçen International Airport (LTFJ) |
Arrival
| Time | N/A |
|---|---|
| Airport | Konya Airport (LTAN) |
| Time | Latitude | Longitude | Altitude | Speed | Heading |
|---|---|---|---|---|---|
| 2026-05-05 18:05 | 40.90609 | 29.31631 | 320 ft | 0 kts | 334° |
| 2026-05-05 18:32 | 40.90606 | 29.31632 | 320 ft | 1 kts | 334° |
| 2026-05-05 18:32 | 40.90599 | 29.31637 | 317 ft | 1 kts | 334° |
| 2026-05-05 18:33 | 40.90592 | 29.31641 | 317 ft | 1 kts | 334° |
| 2026-05-05 18:33 | 40.90582 | 29.31648 | 319 ft | 2 kts | 334° |
| 2026-05-05 18:33 | 40.90570 | 29.31655 | 318 ft | 2 kts | 323° |
| 2026-05-05 18:33 | 40.90565 | 29.31661 | 317 ft | 1 kts | 314° |
| 2026-05-05 18:34 | 40.90557 | 29.31673 | 319 ft | 2 kts | 305° |
| 2026-05-05 18:34 | 40.90549 | 29.31690 | 317 ft | 2 kts | 277° |
| 2026-05-05 18:34 | 40.90550 | 29.31709 | 319 ft | 2 kts | 247° |
| 2026-05-05 18:34 | 40.90552 | 29.31715 | 319 ft | 0 kts | 237° |
| 2026-05-05 18:37 | 40.90551 | 29.31715 | 319 ft | 0 kts | 237° |
| 2026-05-05 18:37 | 40.90527 | 29.31663 | 319 ft | 23 kts | 239° |
| 2026-05-05 18:37 | 40.90503 | 29.31593 | 318 ft | 13 kts | 240° |
| 2026-05-05 18:37 | 40.90451 | 29.31449 | 319 ft | 15 kts | 232° |
| 2026-05-05 18:38 | 40.90408 | 29.31443 | 320 ft | 11 kts | 155° |
| 2026-05-05 18:38 | 40.90334 | 29.31488 | 320 ft | 15 kts | 156° |
| 2026-05-05 18:38 | 40.90250 | 29.31424 | 320 ft | 18 kts | 244° |
| 2026-05-05 18:38 | 40.90187 | 29.31255 | 320 ft | 23 kts | 245° |
| 2026-05-05 18:39 | 40.90109 | 29.31043 | 320 ft | 28 kts | 244° |
| 2026-05-05 18:39 | 40.90015 | 29.30784 | 320 ft | 35 kts | 244° |
| 2026-05-05 18:39 | 40.89908 | 29.30496 | 320 ft | 37 kts | 244° |
| 2026-05-05 18:39 | 40.89804 | 29.30212 | 319 ft | 13 kts | 244° |
| 2026-05-05 18:40 | 40.89761 | 29.30096 | 319 ft | 28 kts | 244° |
| 2026-05-05 18:40 | 40.89658 | 29.29814 | 320 ft | 39 kts | 244° |
| 2026-05-05 18:40 | 40.89534 | 29.29472 | 320 ft | 33 kts | 243° |
| 2026-05-05 18:40 | 40.89462 | 29.29288 | 320 ft | 5 kts | 236° |
| 2026-05-05 18:41 | 40.89403 | 29.29249 | 320 ft | 3 kts | 171° |
| 2026-05-05 18:41 | 40.89382 | 29.29264 | 320 ft | 6 kts | 147° |
| 2026-05-05 18:41 | 40.89331 | 29.29299 | 320 ft | 10 kts | 155° |
| 2026-05-05 18:41 | 40.89288 | 29.29381 | 321 ft | 11 kts | 81° |
| 2026-05-05 18:42 | 40.89307 | 29.29425 | 321 ft | 3 kts | 76° |
| 2026-05-05 18:42 | 40.89320 | 29.29499 | 321 ft | 12 kts | 76° |
| 2026-05-05 18:42 | 40.89407 | 29.29704 | 319 ft | 70 kts | 62° |
| 2026-05-05 18:42 | 40.89798 | 29.30757 | 365 ft | 175 kts | 64° |
| 2026-05-05 18:43 | 40.90374 | 29.32341 | 1016 ft | 212 kts | 64° |
| 2026-05-05 18:43 | 40.91077 | 29.34267 | 2016 ft | 245 kts | 64° |
| 2026-05-05 18:43 | 40.91864 | 29.36396 | 3314 ft | 272 kts | 64° |
| 2026-05-05 18:43 | 40.92734 | 29.38749 | 4426 ft | 297 kts | 64° |
| 2026-05-05 18:44 | 40.93464 | 29.41437 | 5291 ft | 326 kts | 80° |
| 2026-05-05 18:44 | 40.93409 | 29.44548 | 6015 ft | 354 kts | 102° |
| 2026-05-05 18:44 | 40.92471 | 29.47660 | 6640 ft | 380 kts | 121° |
| 2026-05-05 18:44 | 40.90725 | 29.50353 | 7474 ft | 393 kts | 139° |
| 2026-05-05 18:45 | 40.88381 | 29.52416 | 7838 ft | 418 kts | 154° |
| 2026-05-05 18:45 | 40.85795 | 29.54045 | 9348 ft | 406 kts | 155° |
| 2026-05-05 18:45 | 40.83241 | 29.55632 | 10623 ft | 407 kts | 155° |
| 2026-05-05 18:45 | 40.80692 | 29.57203 | 11686 ft | 412 kts | 155° |
| 2026-05-05 18:46 | 40.78070 | 29.58806 | 12725 ft | 416 kts | 155° |
| 2026-05-05 18:46 | 40.75433 | 29.60404 | 13758 ft | 419 kts | 156° |
| 2026-05-05 18:46 | 40.72764 | 29.62008 | 14797 ft | 422 kts | 156° |
| 2026-05-05 18:46 | 40.70084 | 29.63606 | 15835 ft | 424 kts | 156° |
| 2026-05-05 18:47 | 40.67392 | 29.65200 | 16855 ft | 425 kts | 156° |
| 2026-05-05 18:47 | 40.64675 | 29.66797 | 17899 ft | 427 kts | 156° |
| 2026-05-05 18:47 | 40.61960 | 29.68384 | 18928 ft | 428 kts | 156° |
| 2026-05-05 18:47 | 40.59228 | 29.69970 | 19957 ft | 429 kts | 156° |
| 2026-05-05 18:48 | 40.56498 | 29.71547 | 20981 ft | 429 kts | 156° |
| 2026-05-05 18:48 | 40.53755 | 29.73121 | 22008 ft | 429 kts | 156° |
| 2026-05-05 18:48 | 40.51061 | 29.74660 | 23008 ft | 428 kts | 157° |
| 2026-05-05 18:48 | 40.48331 | 29.76212 | 24019 ft | 427 kts | 157° |
| 2026-05-05 18:49 | 40.45601 | 29.77755 | 25026 ft | 426 kts | 157° |
| 2026-05-05 18:49 | 40.42892 | 29.79280 | 26018 ft | 423 kts | 157° |
| 2026-05-05 18:49 | 40.40192 | 29.80793 | 27004 ft | 420 kts | 157° |
| 2026-05-05 18:49 | 40.37512 | 29.82288 | 27978 ft | 417 kts | 157° |
| 2026-05-05 18:50 | 40.34849 | 29.83768 | 28942 ft | 412 kts | 157° |
| 2026-05-05 18:50 | 40.32210 | 29.85228 | 29885 ft | 407 kts | 157° |
| 2026-05-05 18:50 | 40.29612 | 29.86662 | 30820 ft | 402 kts | 158° |
| 2026-05-05 18:50 | 40.27075 | 29.88058 | 31714 ft | 397 kts | 158° |
| 2026-05-05 18:51 | 40.24536 | 29.89450 | 32602 ft | 392 kts | 158° |
| 2026-05-05 18:51 | 40.22039 | 29.90816 | 33471 ft | 385 kts | 158° |
| 2026-05-05 18:51 | 40.19589 | 29.92149 | 34295 ft | 380 kts | 159° |
| 2026-05-05 18:51 | 40.17015 | 29.93035 | 34521 ft | 391 kts | 174° |
| 2026-05-05 18:52 | 40.14210 | 29.92964 | 34165 ft | 416 kts | 190° |
| 2026-05-05 18:52 | 40.11350 | 29.91872 | 33792 ft | 441 kts | 204° |
| 2026-05-05 18:52 | 40.08658 | 29.89897 | 33426 ft | 464 kts | 215° |
| 2026-05-05 18:52 | 40.06030 | 29.87373 | 33054 ft | 484 kts | 218° |
| 2026-05-05 18:53 | 40.03320 | 29.84619 | 32673 ft | 494 kts | 218° |
| 2026-05-05 18:53 | 40.00680 | 29.81898 | 32301 ft | 474 kts | 219° |
| 2026-05-05 18:53 | 39.98178 | 29.79203 | 31920 ft | 458 kts | 220° |
| 2026-05-05 18:53 | 39.96571 | 29.77447 | 31665 ft | 454 kts | 220° |
| 2026-05-05 18:54 | 39.94093 | 29.74969 | 31296 ft | 443 kts | 212° |
| 2026-05-05 18:54 | 39.91362 | 29.73231 | 30924 ft | 430 kts | 199° |
| 2026-05-05 18:54 | 39.88482 | 29.72395 | 30549 ft | 419 kts | 185° |
| 2026-05-05 18:54 | 39.85606 | 29.72518 | 30174 ft | 411 kts | 170° |
| 2026-05-05 18:55 | 39.82884 | 29.73604 | 29800 ft | 411 kts | 155° |
| 2026-05-05 18:55 | 39.80434 | 29.75421 | 29431 ft | 409 kts | 148° |
| 2026-05-05 18:55 | 39.78024 | 29.77372 | 29050 ft | 406 kts | 149° |
| 2026-05-05 18:55 | 39.75567 | 29.79166 | 28677 ft | 402 kts | 153° |
| 2026-05-05 18:56 | 39.73076 | 29.80778 | 28304 ft | 399 kts | 155° |
| 2026-05-05 18:56 | 39.70559 | 29.82277 | 27929 ft | 397 kts | 156° |
| 2026-05-05 18:56 | 39.68034 | 29.83717 | 27553 ft | 395 kts | 157° |
| 2026-05-05 18:56 | 39.65517 | 29.85128 | 27177 ft | 392 kts | 157° |
| 2026-05-05 18:57 | 39.63018 | 29.86524 | 26802 ft | 389 kts | 157° |
| 2026-05-05 18:57 | 39.60531 | 29.87914 | 26416 ft | 387 kts | 157° |
| 2026-05-05 18:57 | 39.58096 | 29.89275 | 26049 ft | 385 kts | 157° |
| 2026-05-05 18:57 | 39.55636 | 29.90652 | 25672 ft | 382 kts | 157° |
| 2026-05-05 18:58 | 39.53201 | 29.92015 | 25303 ft | 380 kts | 157° |
| 2026-05-05 18:58 | 39.50780 | 29.93371 | 24927 ft | 378 kts | 156° |
| 2026-05-05 18:58 | 39.48374 | 29.94731 | 24551 ft | 375 kts | 156° |
| 2026-05-05 18:58 | 39.46002 | 29.96088 | 24175 ft | 370 kts | 156° |
| 2026-05-05 18:59 | 39.43661 | 29.97442 | 23798 ft | 368 kts | 156° |
| 2026-05-05 18:59 | 39.41324 | 29.98797 | 23423 ft | 368 kts | 156° |
| 2026-05-05 18:59 | 39.39016 | 30.00120 | 23055 ft | 370 kts | 155° |
| 2026-05-05 18:59 | 39.36622 | 30.01528 | 22691 ft | 385 kts | 155° |
| 2026-05-05 19:00 | 39.34140 | 30.02988 | 22304 ft | 398 kts | 155° |
| 2026-05-05 19:00 | 39.31580 | 30.04458 | 21929 ft | 407 kts | 156° |
| 2026-05-05 19:00 | 39.28979 | 30.05895 | 21554 ft | 405 kts | 158° |
| 2026-05-05 19:00 | 39.26388 | 30.07289 | 21174 ft | 401 kts | 158° |
| 2026-05-05 19:01 | 39.23825 | 30.08680 | 20798 ft | 398 kts | 157° |
| 2026-05-05 19:01 | 39.21283 | 30.10083 | 20421 ft | 397 kts | 157° |
| 2026-05-05 19:01 | 39.18746 | 30.11492 | 20050 ft | 395 kts | 157° |
| 2026-05-05 19:01 | 39.16231 | 30.12891 | 19675 ft | 392 kts | 157° |
| 2026-05-05 19:02 | 39.13736 | 30.14274 | 19300 ft | 389 kts | 157° |
| 2026-05-05 19:02 | 39.11261 | 30.15653 | 18926 ft | 387 kts | 157° |
| 2026-05-05 19:02 | 39.08812 | 30.17071 | 18545 ft | 385 kts | 153° |
| 2026-05-05 19:02 | 39.06539 | 30.18872 | 18172 ft | 383 kts | 144° |
| 2026-05-05 19:03 | 39.04543 | 30.21057 | 17802 ft | 381 kts | 136° |
| 2026-05-05 19:03 | 39.02744 | 30.23555 | 17439 ft | 379 kts | 133° |
| 2026-05-05 19:03 | 39.00971 | 30.26053 | 17052 ft | 377 kts | 133° |
| 2026-05-05 19:03 | 38.99199 | 30.28535 | 16677 ft | 375 kts | 133° |
| 2026-05-05 19:04 | 38.97438 | 30.30994 | 16301 ft | 373 kts | 133° |
| 2026-05-05 19:04 | 38.95688 | 30.33437 | 15925 ft | 371 kts | 133° |
| 2026-05-05 19:04 | 38.93945 | 30.35875 | 15549 ft | 368 kts | 133° |
| 2026-05-05 19:04 | 38.92237 | 30.38268 | 15172 ft | 367 kts | 133° |
| 2026-05-05 19:05 | 38.90418 | 30.40697 | 14800 ft | 388 kts | 137° |
| 2026-05-05 19:05 | 38.88565 | 30.43136 | 14517 ft | 370 kts | 134° |
| 2026-05-05 19:05 | 38.86863 | 30.45501 | 14288 ft | 356 kts | 133° |
| 2026-05-05 19:05 | 38.85196 | 30.47855 | 14025 ft | 357 kts | 133° |
| 2026-05-05 19:06 | 38.83512 | 30.50233 | 14150 ft | 364 kts | 133° |
| 2026-05-05 19:06 | 38.81813 | 30.52618 | 15089 ft | 367 kts | 133° |
| 2026-05-05 19:06 | 38.80066 | 30.55059 | 16372 ft | 369 kts | 133° |
| 2026-05-05 19:06 | 38.78359 | 30.57518 | 17422 ft | 376 kts | 131° |
| 2026-05-05 19:07 | 38.76634 | 30.60085 | 18431 ft | 382 kts | 131° |
| 2026-05-05 19:07 | 38.74891 | 30.62692 | 19422 ft | 388 kts | 131° |